sensor_id;sensor_type;location;lat;lon;timestamp;P1;durP1;ratioP1;P2;durP2;ratioP2
21959;SDS011;11144;43.030;25.108;2024-02-04T00:00:10;6.88;;;4.30;;
21959;SDS011;11144;43.030;25.108;2024-02-04T00:01:45;7.72;;;3.53;;
21959;SDS011;11144;43.030;25.108;2024-02-04T00:03:17;6.82;;;3.70;;
21959;SDS011;11144;43.030;25.108;2024-02-04T00:04:52;10.50;;;4.55;;
21959;SDS011;11144;43.030;25.108;2024-02-04T00:06:24;7.90;;;3.88;;
21959;SDS011;11144;43.030;25.108;2024-02-04T00:07:58;10.00;;;4.05;;
21959;SDS011;11144;43.030;25.108;2024-02-04T00:09:30;5.70;;;4.00;;
21959;SDS011;11144;43.030;25.108;2024-02-04T00:11:08;6.18;;;3.20;;
21959;SDS011;11144;43.030;25.108;2024-02-04T00:12:43;9.82;;;3.65;;
21959;SDS011;11144;43.030;25.108;2024-02-04T00:14:16;5.75;;;3.38;;
21959;SDS011;11144;43.030;25.108;2024-02-04T00:15:49;5.68;;;3.40;;
21959;SDS011;11144;43.030;25.108;2024-02-04T00:17:21;5.97;;;3.75;;
21959;SDS011;11144;43.030;25.108;2024-02-04T00:18:55;9.30;;;4.00;;
21959;SDS011;11144;43.030;25.108;2024-02-04T00:20:28;5.10;;;3.22;;
21959;SDS011;11144;43.030;25.108;2024-02-04T00:22:04;9.32;;;5.00;;
21959;SDS011;11144;43.030;25.108;2024-02-04T00:23:36;10.25;;;4.40;;
21959;SDS011;11144;43.030;25.108;2024-02-04T00:25:09;5.60;;;3.25;;
21959;SDS011;11144;43.030;25.108;2024-02-04T00:26:45;7.25;;;3.25;;
21959;SDS011;11144;43.030;25.108;2024-02-04T00:28:19;6.00;;;2.95;;
21959;SDS011;11144;43.030;25.108;2024-02-04T00:29:52;5.30;;;3.33;;
21959;SDS011;11144;43.030;25.108;2024-02-04T00:31:25;6.30;;;3.55;;
21959;SDS011;11144;43.030;25.108;2024-02-04T00:32:58;10.32;;;4.97;;
21959;SDS011;11144;43.030;25.108;2024-02-04T00:34:34;6.40;;;3.85;;
21959;SDS011;11144;43.030;25.108;2024-02-04T00:36:07;5.63;;;3.40;;
21959;SDS011;11144;43.030;25.108;2024-02-04T00:37:40;6.88;;;3.13;;
21959;SDS011;11144;43.030;25.108;2024-02-04T00:39:13;4.57;;;2.83;;
21959;SDS011;11144;43.030;25.108;2024-02-04T00:40:46;6.85;;;3.45;;
21959;SDS011;11144;43.030;25.108;2024-02-04T00:42:20;8.77;;;3.80;;
21959;SDS011;11144;43.030;25.108;2024-02-04T00:43:53;5.60;;;2.97;;
21959;SDS011;11144;43.030;25.108;2024-02-04T00:45:26;8.77;;;3.78;;
21959;SDS011;11144;43.030;25.108;2024-02-04T00:46:59;6.10;;;3.40;;
21959;SDS011;11144;43.030;25.108;2024-02-04T00:48:32;6.03;;;3.58;;
21959;SDS011;11144;43.030;25.108;2024-02-04T00:50:05;4.30;;;3.10;;
21959;SDS011;11144;43.030;25.108;2024-02-04T00:51:40;5.57;;;3.03;;
21959;SDS011;11144;43.030;25.108;2024-02-04T00:53:12;5.10;;;3.00;;
21959;SDS011;11144;43.030;25.108;2024-02-04T00:54:46;10.60;;;4.65;;
21959;SDS011;11144;43.030;25.108;2024-02-04T00:56:18;6.90;;;3.75;;
21959;SDS011;11144;43.030;25.108;2024-02-04T00:57:53;5.70;;;3.38;;
21959;SDS011;11144;43.030;25.108;2024-02-04T00:59:27;6.70;;;4.07;;
21959;SDS011;11144;43.030;25.108;2024-02-04T01:00:59;6.70;;;4.03;;
21959;SDS011;11144;43.030;25.108;2024-02-04T01:02:33;6.35;;;3.33;;
21959;SDS011;11144;43.030;25.108;2024-02-04T01:04:06;9.63;;;4.10;;
21959;SDS011;11144;43.030;25.108;2024-02-04T01:05:39;7.65;;;3.00;;
21959;SDS011;11144;43.030;25.108;2024-02-04T01:07:12;4.85;;;3.13;;
21959;SDS011;11144;43.030;25.108;2024-02-04T01:08:46;6.97;;;3.42;;
21959;SDS011;11144;43.030;25.108;2024-02-04T01:10:18;6.57;;;3.58;;
21959;SDS011;11144;43.030;25.108;2024-02-04T01:11:51;6.30;;;3.60;;
21959;SDS011;11144;43.030;25.108;2024-02-04T01:13:27;4.35;;;2.72;;
21959;SDS011;11144;43.030;25.108;2024-02-04T01:15:01;5.35;;;3.33;;
21959;SDS011;11144;43.030;25.108;2024-02-04T01:16:37;7.28;;;3.85;;
21959;SDS011;11144;43.030;25.108;2024-02-04T01:18:10;6.18;;;3.33;;
21959;SDS011;11144;43.030;25.108;2024-02-04T01:19:43;4.80;;;3.08;;
21959;SDS011;11144;43.030;25.108;2024-02-04T01:21:17;5.78;;;3.47;;
21959;SDS011;11144;43.030;25.108;2024-02-04T01:22:50;6.78;;;3.17;;
21959;SDS011;11144;43.030;25.108;2024-02-04T01:24:23;5.50;;;3.03;;
21959;SDS011;11144;43.030;25.108;2024-02-04T01:25:56;5.03;;;3.17;;
21959;SDS011;11144;43.030;25.108;2024-02-04T01:27:29;7.25;;;3.35;;
21959;SDS011;11144;43.030;25.108;2024-02-04T01:29:04;5.30;;;3.45;;
21959;SDS011;11144;43.030;25.108;2024-02-04T01:30:36;5.82;;;3.22;;
21959;SDS011;11144;43.030;25.108;2024-02-04T01:32:09;10.68;;;4.13;;
21959;SDS011;11144;43.030;25.108;2024-02-04T01:33:42;5.28;;;2.88;;
21959;SDS011;11144;43.030;25.108;2024-02-04T01:35:16;6.13;;;3.15;;
21959;SDS011;11144;43.030;25.108;2024-02-04T01:36:48;8.05;;;3.83;;
21959;SDS011;11144;43.030;25.108;2024-02-04T01:38:21;5.65;;;3.55;;
21959;SDS011;11144;43.030;25.108;2024-02-04T01:39:54;7.50;;;3.60;;
21959;SDS011;11144;43.030;25.108;2024-02-04T01:41:27;4.75;;;3.05;;
21959;SDS011;11144;43.030;25.108;2024-02-04T01:43:01;3.67;;;2.75;;
21959;SDS011;11144;43.030;25.108;2024-02-04T01:44:35;5.63;;;3.08;;
21959;SDS011;11144;43.030;25.108;2024-02-04T01:46:08;4.43;;;2.88;;
21959;SDS011;11144;43.030;25.108;2024-02-04T01:47:42;6.28;;;3.25;;
21959;SDS011;11144;43.030;25.108;2024-02-04T01:49:16;4.63;;;3.42;;
21959;SDS011;11144;43.030;25.108;2024-02-04T01:50:49;6.65;;;3.63;;
21959;SDS011;11144;43.030;25.108;2024-02-04T01:52:25;5.75;;;3.28;;
21959;SDS011;11144;43.030;25.108;2024-02-04T01:53:59;4.25;;;2.72;;
21959;SDS011;11144;43.030;25.108;2024-02-04T01:55:32;8.27;;;3.55;;
21959;SDS011;11144;43.030;25.108;2024-02-04T01:57:05;5.85;;;2.90;;
21959;SDS011;11144;43.030;25.108;2024-02-04T01:58:39;6.05;;;2.83;;
21959;SDS011;11144;43.030;25.108;2024-02-04T02:00:15;5.30;;;3.00;;
21959;SDS011;11144;43.030;25.108;2024-02-04T02:01:50;4.55;;;2.70;;
21959;SDS011;11144;43.030;25.108;2024-02-04T02:03:24;7.05;;;2.65;;
21959;SDS011;11144;43.030;25.108;2024-02-04T02:04:57;3.92;;;2.92;;
21959;SDS011;11144;43.030;25.108;2024-02-04T02:06:32;5.15;;;2.78;;
21959;SDS011;11144;43.030;25.108;2024-02-04T02:08:05;7.47;;;3.90;;
21959;SDS011;11144;43.030;25.108;2024-02-04T02:09:39;5.50;;;3.20;;
21959;SDS011;11144;43.030;25.108;2024-02-04T02:11:15;6.07;;;3.67;;
21959;SDS011;11144;43.030;25.108;2024-02-04T02:12:56;5.47;;;3.42;;
21959;SDS011;11144;43.030;25.108;2024-02-04T02:14:37;3.58;;;2.33;;
21959;SDS011;11144;43.030;25.108;2024-02-04T02:16:16;4.78;;;2.78;;
21959;SDS011;11144;43.030;25.108;2024-02-04T02:17:54;4.05;;;2.63;;
21959;SDS011;11144;43.030;25.108;2024-02-04T02:19:33;4.03;;;2.60;;
21959;SDS011;11144;43.030;25.108;2024-02-04T02:23:10;4.03;;;2.50;;
21959;SDS011;11144;43.030;25.108;2024-02-04T02:24:50;3.45;;;1.88;;
21959;SDS011;11144;43.030;25.108;2024-02-04T02:26:23;4.18;;;2.03;;
21959;SDS011;11144;43.030;25.108;2024-02-04T02:27:57;4.38;;;2.50;;
21959;SDS011;11144;43.030;25.108;2024-02-04T02:29:29;6.18;;;2.92;;
21959;SDS011;11144;43.030;25.108;2024-02-04T02:31:04;5.43;;;2.10;;
21959;SDS011;11144;43.030;25.108;2024-02-04T02:32:38;8.45;;;2.65;;
21959;SDS011;11144;43.030;25.108;2024-02-04T02:34:10;6.20;;;2.88;;
21959;SDS011;11144;43.030;25.108;2024-02-04T02:36:01;3.97;;;2.50;;
21959;SDS011;11144;43.030;25.108;2024-02-04T02:37:41;4.63;;;2.70;;
21959;SDS011;11144;43.030;25.108;2024-02-04T02:39:21;7.10;;;3.22;;
21959;SDS011;11144;43.030;25.108;2024-02-04T02:40:58;5.10;;;3.17;;
21959;SDS011;11144;43.030;25.108;2024-02-04T02:42:34;5.18;;;2.50;;
21959;SDS011;11144;43.030;25.108;2024-02-04T02:44:09;6.07;;;2.75;;
21959;SDS011;11144;43.030;25.108;2024-02-04T02:45:42;4.35;;;2.60;;
21959;SDS011;11144;43.030;25.108;2024-02-04T02:47:17;3.47;;;2.08;;
21959;SDS011;11144;43.030;25.108;2024-02-04T02:48:50;6.72;;;2.33;;
21959;SDS011;11144;43.030;25.108;2024-02-04T02:50:24;3.83;;;2.58;;
21959;SDS011;11144;43.030;25.108;2024-02-04T02:51:56;3.83;;;2.08;;
21959;SDS011;11144;43.030;25.108;2024-02-04T02:53:30;5.25;;;2.47;;
21959;SDS011;11144;43.030;25.108;2024-02-04T02:55:03;4.80;;;2.15;;
21959;SDS011;11144;43.030;25.108;2024-02-04T02:56:38;3.33;;;2.05;;
21959;SDS011;11144;43.030;25.108;2024-02-04T02:58:11;4.88;;;2.65;;
21959;SDS011;11144;43.030;25.108;2024-02-04T02:59:45;3.25;;;1.95;;
21959;SDS011;11144;43.030;25.108;2024-02-04T03:01:18;3.08;;;2.03;;
21959;SDS011;11144;43.030;25.108;2024-02-04T03:02:51;4.85;;;2.15;;
21959;SDS011;11144;43.030;25.108;2024-02-04T03:04:24;7.32;;;2.08;;
21959;SDS011;11144;43.030;25.108;2024-02-04T03:05:56;3.85;;;1.75;;
21959;SDS011;11144;43.030;25.108;2024-02-04T03:07:30;2.55;;;1.60;;
21959;SDS011;11144;43.030;25.108;2024-02-04T03:09:02;6.05;;;1.50;;
21959;SDS011;11144;43.030;25.108;2024-02-04T03:10:36;3.53;;;1.55;;
21959;SDS011;11144;43.030;25.108;2024-02-04T03:12:09;2.63;;;1.50;;
21959;SDS011;11144;43.030;25.108;2024-02-04T03:13:43;3.92;;;1.80;;
21959;SDS011;11144;43.030;25.108;2024-02-04T03:15:16;3.53;;;2.05;;
21959;SDS011;11144;43.030;25.108;2024-02-04T03:16:49;7.13;;;2.38;;
21959;SDS011;11144;43.030;25.108;2024-02-04T03:18:25;3.50;;;1.58;;
21959;SDS011;11144;43.030;25.108;2024-02-04T03:19:58;4.65;;;1.98;;
21959;SDS011;11144;43.030;25.108;2024-02-04T03:21:31;5.22;;;1.63;;
21959;SDS011;11144;43.030;25.108;2024-02-04T03:23:05;3.60;;;1.50;;
21959;SDS011;11144;43.030;25.108;2024-02-04T03:24:38;3.08;;;1.83;;
21959;SDS011;11144;43.030;25.108;2024-02-04T03:26:11;3.15;;;1.90;;
21959;SDS011;11144;43.030;25.108;2024-02-04T03:27:46;3.08;;;1.60;;
21959;SDS011;11144;43.030;25.108;2024-02-04T03:29:19;3.53;;;1.73;;
21959;SDS011;11144;43.030;25.108;2024-02-04T03:30:52;3.50;;;1.60;;
21959;SDS011;11144;43.030;25.108;2024-02-04T03:32:26;3.30;;;1.88;;
21959;SDS011;11144;43.030;25.108;2024-02-04T03:34:01;2.78;;;1.60;;
21959;SDS011;11144;43.030;25.108;2024-02-04T03:35:33;3.85;;;1.40;;
21959;SDS011;11144;43.030;25.108;2024-02-04T03:37:09;1.58;;;1.10;;
21959;SDS011;11144;43.030;25.108;2024-02-04T03:38:42;2.80;;;1.60;;
21959;SDS011;11144;43.030;25.108;2024-02-04T03:40:16;2.05;;;1.15;;
21959;SDS011;11144;43.030;25.108;2024-02-04T03:41:51;3.47;;;1.52;;
21959;SDS011;11144;43.030;25.108;2024-02-04T03:43:25;3.10;;;1.45;;
21959;SDS011;11144;43.030;25.108;2024-02-04T03:44:58;2.85;;;1.42;;
21959;SDS011;11144;43.030;25.108;2024-02-04T03:46:33;3.90;;;1.70;;
21959;SDS011;11144;43.030;25.108;2024-02-04T03:48:07;2.30;;;1.00;;
21959;SDS011;11144;43.030;25.108;2024-02-04T03:49:39;1.88;;;1.20;;
21959;SDS011;11144;43.030;25.108;2024-02-04T03:51:16;2.97;;;1.48;;
21959;SDS011;11144;43.030;25.108;2024-02-04T03:52:50;3.25;;;1.42;;
21959;SDS011;11144;43.030;25.108;2024-02-04T03:54:24;2.55;;;1.13;;
21959;SDS011;11144;43.030;25.108;2024-02-04T03:55:57;2.25;;;1.45;;
21959;SDS011;11144;43.030;25.108;2024-02-04T03:57:30;2.63;;;1.35;;
21959;SDS011;11144;43.030;25.108;2024-02-04T03:59:08;3.63;;;1.42;;
21959;SDS011;11144;43.030;25.108;2024-02-04T04:00:42;2.95;;;1.27;;
21959;SDS011;11144;43.030;25.108;2024-02-04T04:02:15;5.22;;;1.55;;
21959;SDS011;11144;43.030;25.108;2024-02-04T04:03:48;2.15;;;1.42;;
21959;SDS011;11144;43.030;25.108;2024-02-04T04:05:21;2.42;;;1.40;;
21959;SDS011;11144;43.030;25.108;2024-02-04T04:06:54;1.65;;;1.30;;
21959;SDS011;11144;43.030;25.108;2024-02-04T04:08:27;2.47;;;1.40;;
21959;SDS011;11144;43.030;25.108;2024-02-04T04:10:00;2.85;;;1.45;;
21959;SDS011;11144;43.030;25.108;2024-02-04T04:11:34;2.25;;;0.98;;
21959;SDS011;11144;43.030;25.108;2024-02-04T04:13:06;2.33;;;1.48;;
21959;SDS011;11144;43.030;25.108;2024-02-04T04:14:41;5.55;;;1.60;;
21959;SDS011;11144;43.030;25.108;2024-02-04T04:16:13;4.13;;;1.70;;
21959;SDS011;11144;43.030;25.108;2024-02-04T04:17:47;3.20;;;1.58;;
21959;SDS011;11144;43.030;25.108;2024-02-04T04:19:20;3.28;;;1.27;;
21959;SDS011;11144;43.030;25.108;2024-02-04T04:20:52;2.03;;;1.13;;
21959;SDS011;11144;43.030;25.108;2024-02-04T04:22:26;3.20;;;1.60;;
21959;SDS011;11144;43.030;25.108;2024-02-04T04:24:00;3.47;;;1.80;;
21959;SDS011;11144;43.030;25.108;2024-02-04T04:25:33;2.88;;;1.65;;
21959;SDS011;11144;43.030;25.108;2024-02-04T04:27:06;1.85;;;1.15;;
21959;SDS011;11144;43.030;25.108;2024-02-04T04:28:38;3.10;;;1.60;;
21959;SDS011;11144;43.030;25.108;2024-02-04T04:30:13;1.98;;;1.42;;
21959;SDS011;11144;43.030;25.108;2024-02-04T04:31:46;2.45;;;1.35;;
21959;SDS011;11144;43.030;25.108;2024-02-04T04:33:20;4.05;;;1.25;;
21959;SDS011;11144;43.030;25.108;2024-02-04T04:34:52;2.25;;;1.30;;
21959;SDS011;11144;43.030;25.108;2024-02-04T04:36:27;2.92;;;1.23;;
21959;SDS011;11144;43.030;25.108;2024-02-04T04:38:01;2.42;;;1.30;;
21959;SDS011;11144;43.030;25.108;2024-02-04T04:39:33;2.00;;;1.20;;
21959;SDS011;11144;43.030;25.108;2024-02-04T04:41:06;3.80;;;1.42;;
21959;SDS011;11144;43.030;25.108;2024-02-04T04:42:39;2.17;;;1.30;;
21959;SDS011;11144;43.030;25.108;2024-02-04T04:44:13;2.92;;;1.58;;
21959;SDS011;11144;43.030;25.108;2024-02-04T04:45:47;4.80;;;1.50;;
21959;SDS011;11144;43.030;25.108;2024-02-04T04:47:20;2.05;;;0.95;;
21959;SDS011;11144;43.030;25.108;2024-02-04T04:48:53;4.10;;;1.60;;
21959;SDS011;11144;43.030;25.108;2024-02-04T04:50:29;2.92;;;1.45;;
21959;SDS011;11144;43.030;25.108;2024-02-04T04:52:03;2.85;;;1.30;;
21959;SDS011;11144;43.030;25.108;2024-02-04T04:53:37;2.10;;;0.90;;
21959;SDS011;11144;43.030;25.108;2024-02-04T04:55:09;2.60;;;1.42;;
21959;SDS011;11144;43.030;25.108;2024-02-04T04:56:43;2.38;;;1.13;;
21959;SDS011;11144;43.030;25.108;2024-02-04T04:58:15;3.60;;;1.08;;
21959;SDS011;11144;43.030;25.108;2024-02-04T04:59:48;2.22;;;1.42;;
21959;SDS011;11144;43.030;25.108;2024-02-04T05:01:22;2.28;;;1.08;;
21959;SDS011;11144;43.030;25.108;2024-02-04T05:02:56;2.95;;;1.52;;
21959;SDS011;11144;43.030;25.108;2024-02-04T05:04:28;1.88;;;1.25;;
21959;SDS011;11144;43.030;25.108;2024-02-04T05:06:01;2.33;;;1.38;;
21959;SDS011;11144;43.030;25.108;2024-02-04T05:07:34;2.05;;;1.02;;
21959;SDS011;11144;43.030;25.108;2024-02-04T05:09:07;1.58;;;1.00;;
21959;SDS011;11144;43.030;25.108;2024-02-04T05:10:40;4.03;;;1.42;;
21959;SDS011;11144;43.030;25.108;2024-02-04T05:12:14;3.72;;;1.40;;
21959;SDS011;11144;43.030;25.108;2024-02-04T05:13:46;2.75;;;1.45;;
21959;SDS011;11144;43.030;25.108;2024-02-04T05:15:19;3.50;;;1.42;;
21959;SDS011;11144;43.030;25.108;2024-02-04T05:16:54;3.30;;;1.70;;
21959;SDS011;11144;43.030;25.108;2024-02-04T05:18:27;3.63;;;1.30;;
21959;SDS011;11144;43.030;25.108;2024-02-04T05:20:00;2.97;;;1.50;;
21959;SDS011;11144;43.030;25.108;2024-02-04T05:21:37;2.95;;;1.55;;
21959;SDS011;11144;43.030;25.108;2024-02-04T05:23:10;3.88;;;1.90;;
21959;SDS011;11144;43.030;25.108;2024-02-04T05:24:43;3.42;;;1.63;;
21959;SDS011;11144;43.030;25.108;2024-02-04T05:26:17;3.25;;;1.50;;
21959;SDS011;11144;43.030;25.108;2024-02-04T05:27:50;2.67;;;1.50;;
21959;SDS011;11144;43.030;25.108;2024-02-04T05:29:23;3.90;;;1.50;;
21959;SDS011;11144;43.030;25.108;2024-02-04T05:30:56;4.20;;;2.00;;
21959;SDS011;11144;43.030;25.108;2024-02-04T05:32:30;5.72;;;2.28;;
21959;SDS011;11144;43.030;25.108;2024-02-04T05:34:05;2.67;;;1.48;;
21959;SDS011;11144;43.030;25.108;2024-02-04T05:35:38;3.63;;;1.92;;
21959;SDS011;11144;43.030;25.108;2024-02-04T05:37:14;9.75;;;5.13;;
21959;SDS011;11144;43.030;25.108;2024-02-04T05:38:46;38.20;;;18.25;;
21959;SDS011;11144;43.030;25.108;2024-02-04T05:40:20;42.60;;;21.70;;
21959;SDS011;11144;43.030;25.108;2024-02-04T05:41:53;23.10;;;14.20;;
21959;SDS011;11144;43.030;25.108;2024-02-04T05:43:26;14.32;;;8.90;;
21959;SDS011;11144;43.030;25.108;2024-02-04T05:44:59;7.60;;;5.72;;
21959;SDS011;11144;43.030;25.108;2024-02-04T05:46:32;12.73;;;8.23;;
21959;SDS011;11144;43.030;25.108;2024-02-04T05:48:06;17.85;;;12.43;;
21959;SDS011;11144;43.030;25.108;2024-02-04T05:49:40;8.40;;;7.25;;
21959;SDS011;11144;43.030;25.108;2024-02-04T05:51:13;4.45;;;2.47;;
21959;SDS011;11144;43.030;25.108;2024-02-04T05:52:46;3.63;;;2.42;;
21959;SDS011;11144;43.030;25.108;2024-02-04T05:54:18;2.60;;;1.73;;
21959;SDS011;11144;43.030;25.108;2024-02-04T05:55:52;3.83;;;2.08;;
21959;SDS011;11144;43.030;25.108;2024-02-04T05:57:24;3.03;;;1.90;;
21959;SDS011;11144;43.030;25.108;2024-02-04T05:58:57;1.98;;;1.15;;
21959;SDS011;11144;43.030;25.108;2024-02-04T06:00:30;2.15;;;1.33;;
21959;SDS011;11144;43.030;25.108;2024-02-04T06:02:03;3.03;;;1.50;;
21959;SDS011;11144;43.030;25.108;2024-02-04T06:03:37;4.97;;;2.05;;
21959;SDS011;11144;43.030;25.108;2024-02-04T06:05:11;3.05;;;1.80;;
21959;SDS011;11144;43.030;25.108;2024-02-04T06:06:44;3.83;;;1.80;;
21959;SDS011;11144;43.030;25.108;2024-02-04T06:08:17;2.75;;;1.67;;
21959;SDS011;11144;43.030;25.108;2024-02-04T06:09:49;3.83;;;1.77;;
21959;SDS011;11144;43.030;25.108;2024-02-04T06:11:23;3.05;;;1.75;;
21959;SDS011;11144;43.030;25.108;2024-02-04T06:12:55;2.42;;;1.25;;
21959;SDS011;11144;43.030;25.108;2024-02-04T06:14:28;3.08;;;1.67;;
21959;SDS011;11144;43.030;25.108;2024-02-04T06:16:01;3.05;;;1.92;;
21959;SDS011;11144;43.030;25.108;2024-02-04T06:17:34;2.00;;;1.20;;
21959;SDS011;11144;43.030;25.108;2024-02-04T06:19:09;3.03;;;1.77;;
21959;SDS011;11144;43.030;25.108;2024-02-04T06:20:45;3.58;;;2.45;;
21959;SDS011;11144;43.030;25.108;2024-02-04T06:22:17;3.08;;;1.73;;
21959;SDS011;11144;43.030;25.108;2024-02-04T06:23:50;4.15;;;2.78;;
21959;SDS011;11144;43.030;25.108;2024-02-04T06:25:23;3.38;;;1.85;;
21959;SDS011;11144;43.030;25.108;2024-02-04T06:26:56;4.35;;;1.95;;
21959;SDS011;11144;43.030;25.108;2024-02-04T06:28:28;3.28;;;2.20;;
21959;SDS011;11144;43.030;25.108;2024-02-04T06:30:02;3.58;;;2.28;;
21959;SDS011;11144;43.030;25.108;2024-02-04T06:31:37;3.88;;;2.20;;
21959;SDS011;11144;43.030;25.108;2024-02-04T06:33:10;2.67;;;1.85;;
21959;SDS011;11144;43.030;25.108;2024-02-04T06:34:44;7.47;;;4.20;;
21959;SDS011;11144;43.030;25.108;2024-02-04T06:36:18;4.90;;;3.05;;
21959;SDS011;11144;43.030;25.108;2024-02-04T06:37:50;3.85;;;2.00;;
21959;SDS011;11144;43.030;25.108;2024-02-04T06:39:23;3.53;;;2.10;;
21959;SDS011;11144;43.030;25.108;2024-02-04T06:40:55;3.05;;;2.00;;
21959;SDS011;11144;43.030;25.108;2024-02-04T06:42:29;2.78;;;1.83;;
21959;SDS011;11144;43.030;25.108;2024-02-04T06:44:02;2.65;;;1.42;;
21959;SDS011;11144;43.030;25.108;2024-02-04T06:45:35;2.83;;;1.55;;
21959;SDS011;11144;43.030;25.108;2024-02-04T06:47:08;3.22;;;1.67;;
21959;SDS011;11144;43.030;25.108;2024-02-04T06:48:41;5.40;;;2.60;;
21959;SDS011;11144;43.030;25.108;2024-02-04T06:50:15;3.17;;;1.98;;
21959;SDS011;11144;43.030;25.108;2024-02-04T06:51:48;3.83;;;1.95;;
21959;SDS011;11144;43.030;25.108;2024-02-04T06:53:22;3.10;;;2.00;;
21959;SDS011;11144;43.030;25.108;2024-02-04T06:54:55;4.82;;;2.72;;
21959;SDS011;11144;43.030;25.108;2024-02-04T06:56:28;5.97;;;3.08;;
21959;SDS011;11144;43.030;25.108;2024-02-04T06:58:00;6.13;;;3.00;;
21959;SDS011;11144;43.030;25.108;2024-02-04T06:59:34;3.78;;;2.17;;
21959;SDS011;11144;43.030;25.108;2024-02-04T07:01:06;4.28;;;2.75;;
21959;SDS011;11144;43.030;25.108;2024-02-04T07:02:40;6.68;;;2.60;;
21959;SDS011;11144;43.030;25.108;2024-02-04T07:04:12;5.72;;;2.90;;
21959;SDS011;11144;43.030;25.108;2024-02-04T07:05:47;6.15;;;1.98;;
21959;SDS011;11144;43.030;25.108;2024-02-04T07:07:20;4.35;;;2.40;;
21959;SDS011;11144;43.030;25.108;2024-02-04T07:08:53;4.63;;;2.90;;
21959;SDS011;11144;43.030;25.108;2024-02-04T07:10:26;6.18;;;2.67;;
21959;SDS011;11144;43.030;25.108;2024-02-04T07:11:58;9.65;;;4.03;;
21959;SDS011;11144;43.030;25.108;2024-02-04T07:13:32;7.95;;;4.55;;
21959;SDS011;11144;43.030;25.108;2024-02-04T07:15:05;6.22;;;3.63;;
21959;SDS011;11144;43.030;25.108;2024-02-04T07:16:38;5.40;;;3.20;;
21959;SDS011;11144;43.030;25.108;2024-02-04T07:18:11;4.45;;;2.33;;
21959;SDS011;11144;43.030;25.108;2024-02-04T07:19:44;5.63;;;3.08;;
21959;SDS011;11144;43.030;25.108;2024-02-04T07:21:18;4.68;;;2.70;;
21959;SDS011;11144;43.030;25.108;2024-02-04T07:22:51;6.60;;;4.10;;
21959;SDS011;11144;43.030;25.108;2024-02-04T07:24:24;5.85;;;3.17;;
21959;SDS011;11144;43.030;25.108;2024-02-04T07:25:57;6.88;;;3.83;;
21959;SDS011;11144;43.030;25.108;2024-02-04T07:27:31;3.97;;;2.22;;
21959;SDS011;11144;43.030;25.108;2024-02-04T07:29:03;4.35;;;2.47;;
21959;SDS011;11144;43.030;25.108;2024-02-04T07:30:36;17.85;;;11.85;;
21959;SDS011;11144;43.030;25.108;2024-02-04T07:32:10;10.15;;;7.00;;
21959;SDS011;11144;43.030;25.108;2024-02-04T07:33:42;5.07;;;2.78;;
21959;SDS011;11144;43.030;25.108;2024-02-04T07:35:16;2.80;;;1.95;;
21959;SDS011;11144;43.030;25.108;2024-02-04T07:36:49;5.75;;;2.90;;
21959;SDS011;11144;43.030;25.108;2024-02-04T07:38:24;11.88;;;8.43;;
21959;SDS011;11144;43.030;25.108;2024-02-04T07:39:56;6.50;;;3.90;;
21959;SDS011;11144;43.030;25.108;2024-02-04T07:41:29;6.70;;;3.22;;
21959;SDS011;11144;43.030;25.108;2024-02-04T07:43:03;8.70;;;4.93;;
21959;SDS011;11144;43.030;25.108;2024-02-04T07:44:36;6.72;;;3.15;;
21959;SDS011;11144;43.030;25.108;2024-02-04T07:46:09;8.13;;;2.53;;
21959;SDS011;11144;43.030;25.108;2024-02-04T07:47:41;7.13;;;4.57;;
21959;SDS011;11144;43.030;25.108;2024-02-04T07:49:15;7.00;;;3.38;;
21959;SDS011;11144;43.030;25.108;2024-02-04T07:50:47;4.85;;;3.33;;
21959;SDS011;11144;43.030;25.108;2024-02-04T07:52:22;7.32;;;2.58;;
21959;SDS011;11144;43.030;25.108;2024-02-04T07:53:54;5.38;;;3.90;;
21959;SDS011;11144;43.030;25.108;2024-02-04T07:55:28;4.05;;;2.75;;
21959;SDS011;11144;43.030;25.108;2024-02-04T07:57:00;8.18;;;4.05;;
21959;SDS011;11144;43.030;25.108;2024-02-04T07:58:33;4.25;;;2.40;;
21959;SDS011;11144;43.030;25.108;2024-02-04T08:00:07;5.32;;;3.75;;
21959;SDS011;11144;43.030;25.108;2024-02-04T08:01:45;4.82;;;2.70;;
21959;SDS011;11144;43.030;25.108;2024-02-04T08:03:18;4.65;;;2.58;;
21959;SDS011;11144;43.030;25.108;2024-02-04T08:04:50;10.18;;;5.03;;
21959;SDS011;11144;43.030;25.108;2024-02-04T08:06:24;6.88;;;3.75;;
21959;SDS011;11144;43.030;25.108;2024-02-04T08:07:58;7.68;;;4.47;;
21959;SDS011;11144;43.030;25.108;2024-02-04T08:09:32;14.25;;;7.10;;
21959;SDS011;11144;43.030;25.108;2024-02-04T08:11:04;7.40;;;3.75;;
21959;SDS011;11144;43.030;25.108;2024-02-04T08:12:37;6.38;;;3.00;;
21959;SDS011;11144;43.030;25.108;2024-02-04T08:14:10;7.47;;;4.70;;
21959;SDS011;11144;43.030;25.108;2024-02-04T08:15:43;6.70;;;3.72;;
21959;SDS011;11144;43.030;25.108;2024-02-04T08:17:17;6.43;;;3.05;;
21959;SDS011;11144;43.030;25.108;2024-02-04T08:18:49;8.75;;;4.60;;
21959;SDS011;11144;43.030;25.108;2024-02-04T08:20:22;6.80;;;3.47;;
21959;SDS011;11144;43.030;25.108;2024-02-04T08:21:55;10.40;;;4.82;;
21959;SDS011;11144;43.030;25.108;2024-02-04T08:23:29;11.40;;;4.90;;
21959;SDS011;11144;43.030;25.108;2024-02-04T08:25:02;8.85;;;4.65;;
21959;SDS011;11144;43.030;25.108;2024-02-04T08:26:36;7.38;;;3.20;;
21959;SDS011;11144;43.030;25.108;2024-02-04T08:28:08;7.43;;;4.03;;
21959;SDS011;11144;43.030;25.108;2024-02-04T08:29:41;9.95;;;5.57;;
21959;SDS011;11144;43.030;25.108;2024-02-04T08:31:14;7.82;;;4.43;;
21959;SDS011;11144;43.030;25.108;2024-02-04T08:32:47;6.70;;;2.42;;
21959;SDS011;11144;43.030;25.108;2024-02-04T08:34:20;7.68;;;3.40;;
21959;SDS011;11144;43.030;25.108;2024-02-04T08:35:55;7.72;;;3.83;;
21959;SDS011;11144;43.030;25.108;2024-02-04T08:37:29;12.77;;;6.60;;
21959;SDS011;11144;43.030;25.108;2024-02-04T08:39:02;13.20;;;8.10;;
21959;SDS011;11144;43.030;25.108;2024-02-04T08:40:36;13.25;;;7.00;;
21959;SDS011;11144;43.030;25.108;2024-02-04T08:42:09;4.78;;;3.25;;
21959;SDS011;11144;43.030;25.108;2024-02-04T08:43:41;6.75;;;4.15;;
21959;SDS011;11144;43.030;25.108;2024-02-04T08:45:15;10.32;;;5.70;;
21959;SDS011;11144;43.030;25.108;2024-02-04T08:46:47;5.43;;;2.88;;
21959;SDS011;11144;43.030;25.108;2024-02-04T08:48:21;10.07;;;5.57;;
21959;SDS011;11144;43.030;25.108;2024-02-04T08:49:53;5.63;;;3.08;;
21959;SDS011;11144;43.030;25.108;2024-02-04T08:51:26;4.97;;;3.20;;
21959;SDS011;11144;43.030;25.108;2024-02-04T08:53:02;10.48;;;4.07;;
21959;SDS011;11144;43.030;25.108;2024-02-04T08:54:37;6.32;;;3.65;;
21959;SDS011;11144;43.030;25.108;2024-02-04T08:56:09;6.97;;;3.45;;
21959;SDS011;11144;43.030;25.108;2024-02-04T08:57:43;5.95;;;3.50;;
21959;SDS011;11144;43.030;25.108;2024-02-04T08:59:16;3.70;;;2.22;;
21959;SDS011;11144;43.030;25.108;2024-02-04T09:00:49;7.53;;;4.53;;
21959;SDS011;11144;43.030;25.108;2024-02-04T09:02:22;3.75;;;2.03;;
21959;SDS011;11144;43.030;25.108;2024-02-04T09:03:55;5.50;;;3.58;;
21959;SDS011;11144;43.030;25.108;2024-02-04T09:05:28;7.63;;;4.60;;
21959;SDS011;11144;43.030;25.108;2024-02-04T09:07:01;8.57;;;2.97;;
21959;SDS011;11144;43.030;25.108;2024-02-04T09:08:34;10.43;;;5.82;;
21959;SDS011;11144;43.030;25.108;2024-02-04T09:10:09;7.65;;;4.22;;
21959;SDS011;11144;43.030;25.108;2024-02-04T09:11:41;8.32;;;4.88;;
21959;SDS011;11144;43.030;25.108;2024-02-04T09:13:15;8.82;;;4.47;;
21959;SDS011;11144;43.030;25.108;2024-02-04T09:14:48;7.20;;;2.42;;
21959;SDS011;11144;43.030;25.108;2024-02-04T09:16:20;4.05;;;2.17;;